sensor_id;sensor_type;location;lat;lon;timestamp;temperature;humidity
41592;DHT22;28026;48.562;14.440;2023-05-07T00:01:21;11.80;99.90
41592;DHT22;28026;48.562;14.440;2023-05-07T00:03:52;11.80;99.90
41592;DHT22;28026;48.562;14.440;2023-05-07T00:06:23;11.70;99.90
41592;DHT22;28026;48.562;14.440;2023-05-07T00:08:54;11.50;99.90
41592;DHT22;28026;48.562;14.440;2023-05-07T00:11:27;11.50;99.90
41592;DHT22;28026;48.562;14.440;2023-05-07T00:13:58;11.40;99.90
41592;DHT22;28026;48.562;14.440;2023-05-07T00:16:30;11.40;99.90
41592;DHT22;28026;48.562;14.440;2023-05-07T00:19:00;11.30;99.90
41592;DHT22;28026;48.562;14.440;2023-05-07T00:21:31;11.10;99.90
41592;DHT22;28026;48.562;14.440;2023-05-07T00:24:02;11.00;99.90
41592;DHT22;28026;48.562;14.440;2023-05-07T00:26:33;11.00;99.90
41592;DHT22;28026;48.562;14.440;2023-05-07T00:29:04;11.20;99.90
41592;DHT22;28026;48.562;14.440;2023-05-07T00:31:35;11.10;99.90
41592;DHT22;28026;48.562;14.440;2023-05-07T00:34:05;11.00;99.90
41592;DHT22;28026;48.562;14.440;2023-05-07T00:36:36;11.00;99.90
41592;DHT22;28026;48.562;14.440;2023-05-07T00:39:07;10.80;99.90
41592;DHT22;28026;48.562;14.440;2023-05-07T00:41:38;10.80;99.90
41592;DHT22;28026;48.562;14.440;2023-05-07T00:44:08;10.80;99.90
41592;DHT22;28026;48.562;14.440;2023-05-07T00:46:39;10.60;99.90
41592;DHT22;28026;48.562;14.440;2023-05-07T00:49:10;10.80;99.90
41592;DHT22;28026;48.562;14.440;2023-05-07T00:51:42;10.80;99.90
41592;DHT22;28026;48.562;14.440;2023-05-07T00:54:13;10.80;99.90
41592;DHT22;28026;48.562;14.440;2023-05-07T00:56:44;10.80;99.90
41592;DHT22;28026;48.562;14.440;2023-05-07T00:59:15;10.80;99.90
41592;DHT22;28026;48.562;14.440;2023-05-07T01:01:46;10.70;99.90
41592;DHT22;28026;48.562;14.440;2023-05-07T01:04:17;10.70;99.90
41592;DHT22;28026;48.562;14.440;2023-05-07T01:06:48;10.70;99.90
41592;DHT22;28026;48.562;14.440;2023-05-07T01:09:20;10.80;99.90
41592;DHT22;28026;48.562;14.440;2023-05-07T01:11:51;10.90;99.90
41592;DHT22;28026;48.562;14.440;2023-05-07T01:14:23;10.90;99.90
41592;DHT22;28026;48.562;14.440;2023-05-07T01:16:55;10.90;99.90
41592;DHT22;28026;48.562;14.440;2023-05-07T01:19:26;11.00;99.90
41592;DHT22;28026;48.562;14.440;2023-05-07T01:22:04;10.90;99.90
41592;DHT22;28026;48.562;14.440;2023-05-07T01:24:39;10.90;99.90
41592;DHT22;28026;48.562;14.440;2023-05-07T01:27:10;11.00;99.90
41592;DHT22;28026;48.562;14.440;2023-05-07T01:29:41;11.00;99.90
41592;DHT22;28026;48.562;14.440;2023-05-07T01:32:11;10.90;99.90
41592;DHT22;28026;48.562;14.440;2023-05-07T01:34:45;10.90;99.90
41592;DHT22;28026;48.562;14.440;2023-05-07T01:37:19;10.90;99.90
41592;DHT22;28026;48.562;14.440;2023-05-07T01:39:52;10.80;99.90
41592;DHT22;28026;48.562;14.440;2023-05-07T01:42:24;10.80;99.90
41592;DHT22;28026;48.562;14.440;2023-05-07T01:44:55;10.80;99.90
41592;DHT22;28026;48.562;14.440;2023-05-07T01:47:26;10.90;99.90
41592;DHT22;28026;48.562;14.440;2023-05-07T01:49:58;10.90;99.90
41592;DHT22;28026;48.562;14.440;2023-05-07T01:52:29;10.90;99.90
41592;DHT22;28026;48.562;14.440;2023-05-07T01:55:00;10.90;99.90
41592;DHT22;28026;48.562;14.440;2023-05-07T01:57:31;10.90;99.90
41592;DHT22;28026;48.562;14.440;2023-05-07T02:00:02;11.00;99.90
41592;DHT22;28026;48.562;14.440;2023-05-07T02:02:35;10.90;99.90
41592;DHT22;28026;48.562;14.440;2023-05-07T02:05:06;10.90;99.90
41592;DHT22;28026;48.562;14.440;2023-05-07T02:07:37;11.00;99.90
41592;DHT22;28026;48.562;14.440;2023-05-07T02:10:08;11.00;99.90
41592;DHT22;28026;48.562;14.440;2023-05-07T02:12:39;11.00;99.90
41592;DHT22;28026;48.562;14.440;2023-05-07T02:15:10;11.00;99.90
41592;DHT22;28026;48.562;14.440;2023-05-07T02:18:01;10.90;99.90
41592;DHT22;28026;48.562;14.440;2023-05-07T02:20:36;10.90;99.90
41592;DHT22;28026;48.562;14.440;2023-05-07T02:23:07;10.90;99.90
41592;DHT22;28026;48.562;14.440;2023-05-07T02:25:38;10.90;99.90
41592;DHT22;28026;48.562;14.440;2023-05-07T02:28:09;11.00;99.90
41592;DHT22;28026;48.562;14.440;2023-05-07T02:30:40;11.00;99.90
41592;DHT22;28026;48.562;14.440;2023-05-07T02:33:11;11.00;99.90
41592;DHT22;28026;48.562;14.440;2023-05-07T02:35:44;10.90;99.90
41592;DHT22;28026;48.562;14.440;2023-05-07T02:38:14;10.90;99.90
41592;DHT22;28026;48.562;14.440;2023-05-07T02:40:45;10.90;99.90
41592;DHT22;28026;48.562;14.440;2023-05-07T02:43:16;11.00;99.90
41592;DHT22;28026;48.562;14.440;2023-05-07T02:45:47;11.10;99.90
41592;DHT22;28026;48.562;14.440;2023-05-07T02:48:18;11.00;99.90
41592;DHT22;28026;48.562;14.440;2023-05-07T02:50:49;11.00;99.90
41592;DHT22;28026;48.562;14.440;2023-05-07T02:53:19;10.90;99.90
41592;DHT22;28026;48.562;14.440;2023-05-07T02:55:50;10.90;99.90
41592;DHT22;28026;48.562;14.440;2023-05-07T02:58:21;10.80;99.90
41592;DHT22;28026;48.562;14.440;2023-05-07T03:00:52;10.80;99.90
41592;DHT22;28026;48.562;14.440;2023-05-07T03:03:24;10.80;99.90
41592;DHT22;28026;48.562;14.440;2023-05-07T03:05:55;10.80;99.90
41592;DHT22;28026;48.562;14.440;2023-05-07T03:08:26;10.70;99.90
41592;DHT22;28026;48.562;14.440;2023-05-07T03:10:57;10.80;99.90
41592;DHT22;28026;48.562;14.440;2023-05-07T03:13:28;10.70;99.90
41592;DHT22;28026;48.562;14.440;2023-05-07T03:15:59;10.70;99.90
41592;DHT22;28026;48.562;14.440;2023-05-07T03:18:30;10.70;99.90
41592;DHT22;28026;48.562;14.440;2023-05-07T03:21:01;10.60;99.90
41592;DHT22;28026;48.562;14.440;2023-05-07T03:23:31;10.60;99.90
41592;DHT22;28026;48.562;14.440;2023-05-07T03:26:02;10.60;99.90
41592;DHT22;28026;48.562;14.440;2023-05-07T03:28:33;10.50;99.90
41592;DHT22;28026;48.562;14.440;2023-05-07T03:31:04;10.60;99.90
41592;DHT22;28026;48.562;14.440;2023-05-07T03:33:35;10.50;99.90
41592;DHT22;28026;48.562;14.440;2023-05-07T03:36:21;10.60;99.90
41592;DHT22;28026;48.562;14.440;2023-05-07T03:38:53;10.70;99.90
41592;DHT22;28026;48.562;14.440;2023-05-07T03:41:24;10.60;99.90
41592;DHT22;28026;48.562;14.440;2023-05-07T03:43:56;10.60;99.90
41592;DHT22;28026;48.562;14.440;2023-05-07T03:46:27;10.60;99.90
41592;DHT22;28026;48.562;14.440;2023-05-07T03:48:58;10.40;99.90
41592;DHT22;28026;48.562;14.440;2023-05-07T03:51:29;10.50;99.90
41592;DHT22;28026;48.562;14.440;2023-05-07T03:54:00;10.50;99.90
41592;DHT22;28026;48.562;14.440;2023-05-07T03:56:31;10.50;99.90
41592;DHT22;28026;48.562;14.440;2023-05-07T03:59:02;10.60;99.90
41592;DHT22;28026;48.562;14.440;2023-05-07T04:01:33;10.60;99.90
41592;DHT22;28026;48.562;14.440;2023-05-07T04:04:04;10.70;99.90
41592;DHT22;28026;48.562;14.440;2023-05-07T04:06:35;10.60;99.90
41592;DHT22;28026;48.562;14.440;2023-05-07T04:09:05;10.70;99.90
41592;DHT22;28026;48.562;14.440;2023-05-07T04:11:36;10.60;99.90
41592;DHT22;28026;48.562;14.440;2023-05-07T04:14:07;10.70;99.90
41592;DHT22;28026;48.562;14.440;2023-05-07T04:16:38;10.80;99.90
41592;DHT22;28026;48.562;14.440;2023-05-07T04:19:09;10.80;99.90
41592;DHT22;28026;48.562;14.440;2023-05-07T04:21:40;10.70;99.90
41592;DHT22;28026;48.562;14.440;2023-05-07T04:24:10;10.70;99.90
41592;DHT22;28026;48.562;14.440;2023-05-07T04:26:41;10.70;99.90
41592;DHT22;28026;48.562;14.440;2023-05-07T04:29:12;10.60;99.90
41592;DHT22;28026;48.562;14.440;2023-05-07T04:31:43;10.50;99.90
41592;DHT22;28026;48.562;14.440;2023-05-07T04:34:14;10.50;99.90
41592;DHT22;28026;48.562;14.440;2023-05-07T04:36:45;10.40;99.90
41592;DHT22;28026;48.562;14.440;2023-05-07T04:39:16;10.30;99.90
41592;DHT22;28026;48.562;14.440;2023-05-07T04:41:47;10.30;99.90
41592;DHT22;28026;48.562;14.440;2023-05-07T04:44:17;10.20;99.90
41592;DHT22;28026;48.562;14.440;2023-05-07T04:46:48;10.20;99.90
41592;DHT22;28026;48.562;14.440;2023-05-07T04:49:19;10.30;99.90
41592;DHT22;28026;48.562;14.440;2023-05-07T04:51:50;10.30;99.90
41592;DHT22;28026;48.562;14.440;2023-05-07T04:54:20;10.40;99.90
41592;DHT22;28026;48.562;14.440;2023-05-07T04:56:51;10.50;99.90
41592;DHT22;28026;48.562;14.440;2023-05-07T04:59:22;10.60;99.90
41592;DHT22;28026;48.562;14.440;2023-05-07T05:01:53;10.90;99.90
41592;DHT22;28026;48.562;14.440;2023-05-07T05:04:24;11.00;99.90
41592;DHT22;28026;48.562;14.440;2023-05-07T05:06:54;11.10;99.90
41592;DHT22;28026;48.562;14.440;2023-05-07T05:09:25;11.20;99.90
41592;DHT22;28026;48.562;14.440;2023-05-07T05:11:56;11.20;99.90
41592;DHT22;28026;48.562;14.440;2023-05-07T05:14:27;11.20;99.90
41592;DHT22;28026;48.562;14.440;2023-05-07T05:16:58;11.30;99.90
41592;DHT22;28026;48.562;14.440;2023-05-07T05:19:28;11.40;99.90
41592;DHT22;28026;48.562;14.440;2023-05-07T05:21:59;11.40;99.90
41592;DHT22;28026;48.562;14.440;2023-05-07T05:24:31;11.50;99.90
41592;DHT22;28026;48.562;14.440;2023-05-07T05:27:02;11.60;99.90
41592;DHT22;28026;48.562;14.440;2023-05-07T05:29:33;12.00;99.90
41592;DHT22;28026;48.562;14.440;2023-05-07T05:32:04;11.60;99.90
41592;DHT22;28026;48.562;14.440;2023-05-07T05:34:34;11.60;99.90
41592;DHT22;28026;48.562;14.440;2023-05-07T05:37:05;11.60;99.90
41592;DHT22;28026;48.562;14.440;2023-05-07T05:39:36;11.50;99.90
41592;DHT22;28026;48.562;14.440;2023-05-07T05:42:07;11.60;99.90
41592;DHT22;28026;48.562;14.440;2023-05-07T05:44:38;11.60;99.90
41592;DHT22;28026;48.562;14.440;2023-05-07T05:47:08;11.60;99.90
41592;DHT22;28026;48.562;14.440;2023-05-07T05:49:39;11.70;99.90
41592;DHT22;28026;48.562;14.440;2023-05-07T05:52:11;12.00;99.90
41592;DHT22;28026;48.562;14.440;2023-05-07T05:54:44;12.30;99.90
41592;DHT22;28026;48.562;14.440;2023-05-07T05:57:15;12.50;99.90
41592;DHT22;28026;48.562;14.440;2023-05-07T05:59:46;12.70;99.90
41592;DHT22;28026;48.562;14.440;2023-05-07T06:02:17;13.00;99.90
41592;DHT22;28026;48.562;14.440;2023-05-07T06:04:48;13.10;99.90
41592;DHT22;28026;48.562;14.440;2023-05-07T06:07:19;13.20;99.90
41592;DHT22;28026;48.562;14.440;2023-05-07T06:09:50;13.20;99.90
41592;DHT22;28026;48.562;14.440;2023-05-07T06:12:21;13.40;99.90
41592;DHT22;28026;48.562;14.440;2023-05-07T06:14:51;13.70;99.90
41592;DHT22;28026;48.562;14.440;2023-05-07T06:17:22;13.90;99.90
41592;DHT22;28026;48.562;14.440;2023-05-07T06:19:53;14.20;99.90
41592;DHT22;28026;48.562;14.440;2023-05-07T06:22:24;14.20;99.90
41592;DHT22;28026;48.562;14.440;2023-05-07T06:24:55;14.30;99.90
41592;DHT22;28026;48.562;14.440;2023-05-07T06:27:25;14.10;99.90
41592;DHT22;28026;48.562;14.440;2023-05-07T06:29:58;14.10;99.90
41592;DHT22;28026;48.562;14.440;2023-05-07T06:32:29;14.40;99.90
41592;DHT22;28026;48.562;14.440;2023-05-07T06:34:59;14.30;99.90
41592;DHT22;28026;48.562;14.440;2023-05-07T06:37:30;14.60;99.90
41592;DHT22;28026;48.562;14.440;2023-05-07T06:40:01;14.50;99.90
41592;DHT22;28026;48.562;14.440;2023-05-07T06:42:32;14.60;99.90
41592;DHT22;28026;48.562;14.440;2023-05-07T06:45:03;14.80;99.90
41592;DHT22;28026;48.562;14.440;2023-05-07T06:47:35;15.10;99.90
41592;DHT22;28026;48.562;14.440;2023-05-07T06:50:06;15.40;99.90
41592;DHT22;28026;48.562;14.440;2023-05-07T06:52:37;15.90;99.90
41592;DHT22;28026;48.562;14.440;2023-05-07T06:55:08;16.00;99.90
41592;DHT22;28026;48.562;14.440;2023-05-07T06:57:39;16.00;99.90
41592;DHT22;28026;48.562;14.440;2023-05-07T07:00:10;16.10;99.90
41592;DHT22;28026;48.562;14.440;2023-05-07T07:02:41;16.30;99.90
41592;DHT22;28026;48.562;14.440;2023-05-07T07:05:12;16.10;99.90
41592;DHT22;28026;48.562;14.440;2023-05-07T07:07:43;16.10;99.90
41592;DHT22;28026;48.562;14.440;2023-05-07T07:10:14;16.20;99.90
41592;DHT22;28026;48.562;14.440;2023-05-07T07:12:44;16.00;99.90
41592;DHT22;28026;48.562;14.440;2023-05-07T07:15:15;15.90;99.90
41592;DHT22;28026;48.562;14.440;2023-05-07T07:17:46;15.60;99.90
41592;DHT22;28026;48.562;14.440;2023-05-07T07:20:19;15.60;99.90
41592;DHT22;28026;48.562;14.440;2023-05-07T07:22:49;15.50;99.90
41592;DHT22;28026;48.562;14.440;2023-05-07T07:25:20;15.60;99.90
41592;DHT22;28026;48.562;14.440;2023-05-07T07:27:51;15.60;99.90
41592;DHT22;28026;48.562;14.440;2023-05-07T07:30:22;15.60;99.90
41592;DHT22;28026;48.562;14.440;2023-05-07T07:32:53;15.60;99.90
41592;DHT22;28026;48.562;14.440;2023-05-07T07:35:25;15.90;99.90
41592;DHT22;28026;48.562;14.440;2023-05-07T07:37:56;15.90;99.90
41592;DHT22;28026;48.562;14.440;2023-05-07T07:40:26;16.10;99.90
41592;DHT22;28026;48.562;14.440;2023-05-07T07:42:58;16.40;99.90
41592;DHT22;28026;48.562;14.440;2023-05-07T07:45:29;16.60;99.90
41592;DHT22;28026;48.562;14.440;2023-05-07T07:47:59;16.70;99.90
41592;DHT22;28026;48.562;14.440;2023-05-07T07:50:30;17.10;99.90
41592;DHT22;28026;48.562;14.440;2023-05-07T07:53:01;17.40;99.90
41592;DHT22;28026;48.562;14.440;2023-05-07T07:55:32;17.40;99.90
41592;DHT22;28026;48.562;14.440;2023-05-07T07:58:09;17.60;99.90
41592;DHT22;28026;48.562;14.440;2023-05-07T08:00:40;17.10;99.90
41592;DHT22;28026;48.562;14.440;2023-05-07T08:03:11;17.20;99.90
41592;DHT22;28026;48.562;14.440;2023-05-07T08:05:42;17.50;99.90
41592;DHT22;28026;48.562;14.440;2023-05-07T08:08:13;17.80;99.90
41592;DHT22;28026;48.562;14.440;2023-05-07T08:10:44;17.80;99.90
41592;DHT22;28026;48.562;14.440;2023-05-07T08:13:15;17.90;99.90
41592;DHT22;28026;48.562;14.440;2023-05-07T08:15:48;17.90;99.90
41592;DHT22;28026;48.562;14.440;2023-05-07T08:18:19;17.80;99.90
41592;DHT22;28026;48.562;14.440;2023-05-07T08:20:50;17.70;99.90
41592;DHT22;28026;48.562;14.440;2023-05-07T08:23:21;17.60;99.90
41592;DHT22;28026;48.562;14.440;2023-05-07T08:25:52;17.40;99.90
41592;DHT22;28026;48.562;14.440;2023-05-07T08:28:23;17.90;99.90
41592;DHT22;28026;48.562;14.440;2023-05-07T08:30:55;17.90;99.90
41592;DHT22;28026;48.562;14.440;2023-05-07T08:33:27;18.00;99.90
41592;DHT22;28026;48.562;14.440;2023-05-07T08:35:57;18.20;99.90
41592;DHT22;28026;48.562;14.440;2023-05-07T08:38:28;18.20;99.90
41592;DHT22;28026;48.562;14.440;2023-05-07T08:40:59;18.30;99.90
41592;DHT22;28026;48.562;14.440;2023-05-07T08:43:30;18.00;99.90
41592;DHT22;28026;48.562;14.440;2023-05-07T08:46:03;18.00;99.90
41592;DHT22;28026;48.562;14.440;2023-05-07T08:48:35;18.10;99.90
41592;DHT22;28026;48.562;14.440;2023-05-07T08:51:08;18.20;99.90
41592;DHT22;28026;48.562;14.440;2023-05-07T08:53:42;18.40;99.90
41592;DHT22;28026;48.562;14.440;2023-05-07T08:56:14;18.30;99.90
41592;DHT22;28026;48.562;14.440;2023-05-07T08:58:46;18.50;99.90
41592;DHT22;28026;48.562;14.440;2023-05-07T09:01:18;18.50;99.90
41592;DHT22;28026;48.562;14.440;2023-05-07T09:03:49;18.30;99.90
41592;DHT22;28026;48.562;14.440;2023-05-07T09:06:20;18.50;99.90
41592;DHT22;28026;48.562;14.440;2023-05-07T09:08:52;19.10;99.90
41592;DHT22;28026;48.562;14.440;2023-05-07T09:11:24;19.10;99.90
41592;DHT22;28026;48.562;14.440;2023-05-07T09:13:56;18.80;99.90
41592;DHT22;28026;48.562;14.440;2023-05-07T09:16:32;19.30;99.90
41592;DHT22;28026;48.562;14.440;2023-05-07T09:19:03;19.50;99.90
41592;DHT22;28026;48.562;14.440;2023-05-07T09:21:33;19.80;99.90
41592;DHT22;28026;48.562;14.440;2023-05-07T09:24:05;19.90;99.90
41592;DHT22;28026;48.562;14.440;2023-05-07T09:26:36;19.80;99.90
41592;DHT22;28026;48.562;14.440;2023-05-07T09:29:07;19.70;99.90
41592;DHT22;28026;48.562;14.440;2023-05-07T09:31:40;19.90;99.90
41592;DHT22;28026;48.562;14.440;2023-05-07T09:34:11;20.10;99.90
41592;DHT22;28026;48.562;14.440;2023-05-07T09:36:42;20.30;99.90
41592;DHT22;28026;48.562;14.440;2023-05-07T09:39:13;19.90;99.90
41592;DHT22;28026;48.562;14.440;2023-05-07T09:41:44;19.50;99.90
41592;DHT22;28026;48.562;14.440;2023-05-07T09:44:18;19.30;99.90
41592;DHT22;28026;48.562;14.440;2023-05-07T09:46:52;19.40;99.90
41592;DHT22;28026;48.562;14.440;2023-05-07T09:49:27;19.50;99.90
41592;DHT22;28026;48.562;14.440;2023-05-07T09:52:01;19.40;99.90
41592;DHT22;28026;48.562;14.440;2023-05-07T09:54:36;19.40;99.90
41592;DHT22;28026;48.562;14.440;2023-05-07T09:57:11;19.40;99.90
41592;DHT22;28026;48.562;14.440;2023-05-07T09:59:43;19.70;99.90
41592;DHT22;28026;48.562;14.440;2023-05-07T10:02:17;20.00;99.90
41592;DHT22;28026;48.562;14.440;2023-05-07T10:04:50;20.20;99.90
41592;DHT22;28026;48.562;14.440;2023-05-07T10:07:21;20.00;99.90
41592;DHT22;28026;48.562;14.440;2023-05-07T10:09:54;20.50;99.90
41592;DHT22;28026;48.562;14.440;2023-05-07T10:12:25;20.80;99.90
41592;DHT22;28026;48.562;14.440;2023-05-07T10:14:58;21.00;99.90
41592;DHT22;28026;48.562;14.440;2023-05-07T10:17:29;20.70;99.90
41592;DHT22;28026;48.562;14.440;2023-05-07T10:20:00;20.30;99.90
41592;DHT22;28026;48.562;14.440;2023-05-07T10:22:41;20.20;99.90
41592;DHT22;28026;48.562;14.440;2023-05-07T10:25:29;20.60;99.90
41592;DHT22;28026;48.562;14.440;2023-05-07T10:28:04;20.50;99.90
41592;DHT22;28026;48.562;14.440;2023-05-07T10:30:58;20.10;99.90
41592;DHT22;28026;48.562;14.440;2023-05-07T10:33:46;20.70;99.90
41592;DHT22;28026;48.562;14.440;2023-05-07T10:36:21;21.20;99.90
41592;DHT22;28026;48.562;14.440;2023-05-07T10:38:53;21.00;99.90
41592;DHT22;28026;48.562;14.440;2023-05-07T10:41:25;21.00;99.90
41592;DHT22;28026;48.562;14.440;2023-05-07T10:43:56;21.20;99.90
41592;DHT22;28026;48.562;14.440;2023-05-07T10:46:27;21.00;99.90
41592;DHT22;28026;48.562;14.440;2023-05-07T10:51:36;21.20;99.90
41592;DHT22;28026;48.562;14.440;2023-05-07T10:56:43;21.30;99.90
41592;DHT22;28026;48.562;14.440;2023-05-07T11:01:52;21.40;99.90
41592;DHT22;28026;48.562;14.440;2023-05-07T11:04:28;21.80;99.90
41592;DHT22;28026;48.562;14.440;2023-05-07T11:15:08;21.60;99.90
41592;DHT22;28026;48.562;14.440;2023-05-07T11:17:56;21.80;99.90
41592;DHT22;28026;48.562;14.440;2023-05-07T11:26:04;22.30;99.90
41592;DHT22;28026;48.562;14.440;2023-05-07T11:28:41;22.70;99.90
41592;DHT22;28026;48.562;14.440;2023-05-07T11:31:13;22.40;99.90
41592;DHT22;28026;48.562;14.440;2023-05-07T11:33:45;22.60;99.90
41592;DHT22;28026;48.562;14.440;2023-05-07T11:36:16;22.70;99.90
41592;DHT22;28026;48.562;14.440;2023-05-07T11:38:50;22.30;99.90
41592;DHT22;28026;48.562;14.440;2023-05-07T11:41:21;22.60;99.90
41592;DHT22;28026;48.562;14.440;2023-05-07T11:43:55;22.50;99.90
41592;DHT22;28026;48.562;14.440;2023-05-07T11:46:28;21.70;99.90
41592;DHT22;28026;48.562;14.440;2023-05-07T11:49:00;22.00;99.90
41592;DHT22;28026;48.562;14.440;2023-05-07T11:51:31;22.50;99.90
41592;DHT22;28026;48.562;14.440;2023-05-07T11:54:03;22.60;99.90
41592;DHT22;28026;48.562;14.440;2023-05-07T11:56:38;23.00;99.90
41592;DHT22;28026;48.562;14.440;2023-05-07T11:59:09;22.80;99.90
41592;DHT22;28026;48.562;14.440;2023-05-07T12:01:40;23.20;99.90
41592;DHT22;28026;48.562;14.440;2023-05-07T12:04:18;22.30;99.90
41592;DHT22;28026;48.562;14.440;2023-05-07T12:06:54;21.90;99.90
41592;DHT22;28026;48.562;14.440;2023-05-07T12:09:26;21.90;99.90
41592;DHT22;28026;48.562;14.440;2023-05-07T12:11:57;22.40;99.90
41592;DHT22;28026;48.562;14.440;2023-05-07T12:14:32;22.40;99.90
41592;DHT22;28026;48.562;14.440;2023-05-07T12:17:07;22.30;99.90
41592;DHT22;28026;48.562;14.440;2023-05-07T12:19:41;22.50;99.90
41592;DHT22;28026;48.562;14.440;2023-05-07T12:22:15;22.40;99.90
41592;DHT22;28026;48.562;14.440;2023-05-07T12:24:46;22.90;99.90
41592;DHT22;28026;48.562;14.440;2023-05-07T12:27:28;22.90;99.90
41592;DHT22;28026;48.562;14.440;2023-05-07T12:29:59;22.80;99.90
41592;DHT22;28026;48.562;14.440;2023-05-07T12:32:30;22.90;99.90
41592;DHT22;28026;48.562;14.440;2023-05-07T12:35:01;23.10;99.90
41592;DHT22;28026;48.562;14.440;2023-05-07T12:37:32;22.70;99.90
41592;DHT22;28026;48.562;14.440;2023-05-07T12:42:40;22.70;99.90
41592;DHT22;28026;48.562;14.440;2023-05-07T12:45:11;22.50;99.90
41592;DHT22;28026;48.562;14.440;2023-05-07T12:47:46;22.80;99.90
41592;DHT22;28026;48.562;14.440;2023-05-07T12:50:18;22.90;99.90
41592;DHT22;28026;48.562;14.440;2023-05-07T12:52:48;22.80;99.90
41592;DHT22;28026;48.562;14.440;2023-05-07T12:55:20;23.20;99.90
41592;DHT22;28026;48.562;14.440;2023-05-07T12:57:51;23.40;99.90
41592;DHT22;28026;48.562;14.440;2023-05-07T13:00:33;22.90;99.90
41592;DHT22;28026;48.562;14.440;2023-05-07T13:03:08;23.10;99.90
41592;DHT22;28026;48.562;14.440;2023-05-07T13:05:39;23.00;99.90
41592;DHT22;28026;48.562;14.440;2023-05-07T13:08:10;23.40;99.90
41592;DHT22;28026;48.562;14.440;2023-05-07T13:10:41;23.10;99.90
41592;DHT22;28026;48.562;14.440;2023-05-07T13:13:11;22.90;99.90
41592;DHT22;28026;48.562;14.440;2023-05-07T13:15:42;22.70;99.90
41592;DHT22;28026;48.562;14.440;2023-05-07T13:18:13;22.70;99.90
41592;DHT22;28026;48.562;14.440;2023-05-07T13:20:44;22.60;99.90
41592;DHT22;28026;48.562;14.440;2023-05-07T13:23:15;22.70;99.90
41592;DHT22;28026;48.562;14.440;2023-05-07T13:25:46;22.70;99.90
41592;DHT22;28026;48.562;14.440;2023-05-07T13:28:18;22.70;99.90
41592;DHT22;28026;48.562;14.440;2023-05-07T13:30:50;22.50;99.90
41592;DHT22;28026;48.562;14.440;2023-05-07T13:33:22;22.30;99.90
41592;DHT22;28026;48.562;14.440;2023-05-07T13:35:54;22.70;99.90
41592;DHT22;28026;48.562;14.440;2023-05-07T13:38:27;23.20;99.90
41592;DHT22;28026;48.562;14.440;2023-05-07T13:40:58;23.50;99.90
41592;DHT22;28026;48.562;14.440;2023-05-07T13:43:28;23.20;99.90
41592;DHT22;28026;48.562;14.440;2023-05-07T13:46:00;22.60;99.90
41592;DHT22;28026;48.562;14.440;2023-05-07T13:48:31;22.20;99.90
41592;DHT22;28026;48.562;14.440;2023-05-07T13:51:02;21.90;99.90
41592;DHT22;28026;48.562;14.440;2023-05-07T13:53:33;21.40;99.90
41592;DHT22;28026;48.562;14.440;2023-05-07T13:56:04;20.90;99.90
41592;DHT22;28026;48.562;14.440;2023-05-07T13:58:35;20.30;99.90
41592;DHT22;28026;48.562;14.440;2023-05-07T14:01:06;20.30;99.90
41592;DHT22;28026;48.562;14.440;2023-05-07T14:03:37;20.10;99.90
41592;DHT22;28026;48.562;14.440;2023-05-07T14:06:09;20.00;99.90
41592;DHT22;28026;48.562;14.440;2023-05-07T14:08:40;19.60;99.90
41592;DHT22;28026;48.562;14.440;2023-05-07T14:11:11;19.10;99.90
41592;DHT22;28026;48.562;14.440;2023-05-07T14:13:42;19.10;99.90
41592;DHT22;28026;48.562;14.440;2023-05-07T14:16:13;19.60;99.90
41592;DHT22;28026;48.562;14.440;2023-05-07T14:18:44;20.80;99.90
41592;DHT22;28026;48.562;14.440;2023-05-07T14:21:15;21.00;99.90
41592;DHT22;28026;48.562;14.440;2023-05-07T14:23:45;21.00;99.90
41592;DHT22;28026;48.562;14.440;2023-05-07T14:26:16;21.20;99.90
41592;DHT22;28026;48.562;14.440;2023-05-07T14:28:47;21.20;99.90
41592;DHT22;28026;48.562;14.440;2023-05-07T14:31:18;20.80;99.90
41592;DHT22;28026;48.562;14.440;2023-05-07T14:33:49;21.30;99.90
41592;DHT22;28026;48.562;14.440;2023-05-07T14:36:20;21.60;99.90
41592;DHT22;28026;48.562;14.440;2023-05-07T14:38:53;22.00;99.90
41592;DHT22;28026;48.562;14.440;2023-05-07T14:41:25;21.50;99.90
41592;DHT22;28026;48.562;14.440;2023-05-07T14:43:55;21.30;99.90
41592;DHT22;28026;48.562;14.440;2023-05-07T14:46:26;21.20;99.90
41592;DHT22;28026;48.562;14.440;2023-05-07T14:48:57;20.90;99.90
41592;DHT22;28026;48.562;14.440;2023-05-07T14:51:28;20.80;99.90
41592;DHT22;28026;48.562;14.440;2023-05-07T14:53:59;20.70;99.90
41592;DHT22;28026;48.562;14.440;2023-05-07T14:56:31;20.80;99.90
41592;DHT22;28026;48.562;14.440;2023-05-07T14:59:02;20.80;99.90
41592;DHT22;28026;48.562;14.440;2023-05-07T15:01:34;20.80;99.90
41592;DHT22;28026;48.562;14.440;2023-05-07T15:04:06;20.50;99.90
41592;DHT22;28026;48.562;14.440;2023-05-07T15:06:37;19.80;99.90
41592;DHT22;28026;48.562;14.440;2023-05-07T15:09:08;19.80;99.90
41592;DHT22;28026;48.562;14.440;2023-05-07T15:11:39;20.30;99.90
41592;DHT22;28026;48.562;14.440;2023-05-07T15:14:10;20.50;99.90
41592;DHT22;28026;48.562;14.440;2023-05-07T15:16:40;20.50;99.90
41592;DHT22;28026;48.562;14.440;2023-05-07T15:19:11;20.50;99.90
41592;DHT22;28026;48.562;14.440;2023-05-07T15:21:42;20.30;99.90
41592;DHT22;28026;48.562;14.440;2023-05-07T15:24:13;20.00;99.90
41592;DHT22;28026;48.562;14.440;2023-05-07T15:26:44;20.10;99.90
41592;DHT22;28026;48.562;14.440;2023-05-07T15:29:15;20.10;99.90
41592;DHT22;28026;48.562;14.440;2023-05-07T15:31:46;19.90;99.90
41592;DHT22;28026;48.562;14.440;2023-05-07T15:34:17;19.60;99.90
41592;DHT22;28026;48.562;14.440;2023-05-07T15:36:48;19.60;99.90
41592;DHT22;28026;48.562;14.440;2023-05-07T15:39:18;19.30;99.90
41592;DHT22;28026;48.562;14.440;2023-05-07T15:41:49;19.10;99.90
41592;DHT22;28026;48.562;14.440;2023-05-07T15:44:20;18.80;99.90
41592;DHT22;28026;48.562;14.440;2023-05-07T15:46:51;18.80;99.90
41592;DHT22;28026;48.562;14.440;2023-05-07T15:49:22;18.90;99.90
41592;DHT22;28026;48.562;14.440;2023-05-07T15:51:52;18.60;99.90
41592;DHT22;28026;48.562;14.440;2023-05-07T15:54:24;18.40;99.90
41592;DHT22;28026;48.562;14.440;2023-05-07T15:56:55;18.40;99.90
41592;DHT22;28026;48.562;14.440;2023-05-07T15:59:26;18.50;99.90
41592;DHT22;28026;48.562;14.440;2023-05-07T16:01:57;18.70;99.90
41592;DHT22;28026;48.562;14.440;2023-05-07T16:04:28;18.40;99.90
41592;DHT22;28026;48.562;14.440;2023-05-07T16:06:59;18.10;99.90